Aérodrome :
LOGIN :

S'inscrire | Disclaimer

   EN    FR    IT 

 










Légende :    VFR   VFR Marginal   IFR   IFR Intensif   IFR Très Intensif
Visi : 
Plafond : 
>= 8 km
>= 3000ft
5 à 8 km
1000 à 3000 ft
1500m à 5 km
500 à 1000 ft
800 à 1500m
200 à 500 ft
< 800m
< 200 ft
Symboles :   Orages  Brouillard  Fortes neiges  Fortes précipitations  Vent > 20 kt
SIGMETs :   Divers  Orages  Givrage  Turbulence  Onde Orograph.  Cendres Volcan.






- Altitude de l'aérodrome : 597 ft
- Code IATA : PDV


LBPD - Plovdiv

DERNIER METAR :
  • 221600Z AUTO 35006KT 300V030 9999 NCD 07/M07 Q1023 NOSIG

METARs EXPIRÉS :
  • 221530Z AUTO 32007KT 9999 NCD 09/M09 Q1023 NOSIG
  • 221500Z AUTO 24004KT 160V290 9999 NCD 12/M09 Q1024 NOSIG
  • 221430Z AUTO 26007KT 9999 NCD 13/M10 Q1024 NOSIG
  • 221400Z AUTO VRB02KT 9999 NCD 13/M09 Q1025 NOSIG
  • 221330Z AUTO 17004KT 140V200 9999 NCD 12/M09 Q1025 NOSIG

TAF TAF LBPD
Valide du 22 à 12h jusqu'au 23 à 12h UTC


221100Z 2212/2312 VRB04KT 9999 SCT060
BECMG 2214/2216 30012KT
TEMPO 2223/2305 30018G30KT



MET'MAP, la Météo Aéronautique d'un coup d'oeil ! - Copyright ORBIFLY Décembre 2007 - Disclaimer

ORBIFLY MET'MAP TEAM :

Programmation & Développement : Alexandra Zaïnal
Sur une idée originale de : Baudouin d'Aumeries
Assistance à la programmation : Marc-Olivier Méhu
Soutien technique & logistique : Manuel Goepfert

Contact : metmap@orbifly.com




SOURCES & CREDITS :

   NOAA